DETGA EDDV-EDVH
Flight info
| Callsign | DETGA |
|---|---|
| Flight time | 0h 15m |
| Altitude | 3000 |
| Route | VFR |
| Aircraft | C172/L-VGD/A |
Departure
| Time | 2026-04-26 17:16 |
|---|---|
| Airport | Hannover Airport (EDDV) |
Arrival
| Time | 2026-04-26 17:32 |
|---|---|
| Airport | Hodenhagen Airfield (EDVH) |
| Time | Latitude | Longitude | Altitude | Speed | Heading |
|---|---|---|---|---|---|
| 2026-04-26 17:04 | 52.46322 | 9.69376 | 173 ft | 0 kts | 72° |
| 2026-04-26 17:10 | 52.46329 | 9.69376 | 173 ft | 3 kts | 313° |
| 2026-04-26 17:10 | 52.46327 | 9.69315 | 173 ft | 6 kts | 252° |
| 2026-04-26 17:11 | 52.46328 | 9.69284 | 173 ft | 3 kts | 338° |
| 2026-04-26 17:11 | 52.46356 | 9.69269 | 173 ft | 5 kts | 355° |
| 2026-04-26 17:11 | 52.46380 | 9.69310 | 173 ft | 7 kts | 68° |
| 2026-04-26 17:11 | 52.46403 | 9.69405 | 173 ft | 10 kts | 69° |
| 2026-04-26 17:12 | 52.46462 | 9.69651 | 173 ft | 13 kts | 69° |
| 2026-04-26 17:12 | 52.46492 | 9.69776 | 173 ft | 10 kts | 67° |
| 2026-04-26 17:13 | 52.46559 | 9.69938 | 173 ft | 8 kts | 23° |
| 2026-04-26 17:13 | 52.46602 | 9.69951 | 174 ft | 3 kts | 3° |
| 2026-04-26 17:13 | 52.46604 | 9.69951 | 175 ft | 0 kts | 2° |
| 2026-04-26 17:14 | 52.46631 | 9.69950 | 176 ft | 7 kts | 355° |
| 2026-04-26 17:15 | 52.46701 | 9.69701 | 178 ft | 44 kts | 274° |
| 2026-04-26 17:15 | 52.46728 | 9.68983 | 273 ft | 74 kts | 274° |
| 2026-04-26 17:15 | 52.46814 | 9.68116 | 480 ft | 82 kts | 277° |
| 2026-04-26 17:16 | 52.46849 | 9.67160 | 701 ft | 91 kts | 268° |
| 2026-04-26 17:16 | 52.46848 | 9.66095 | 942 ft | 91 kts | 280° |
| 2026-04-26 17:16 | 52.47133 | 9.65246 | 1266 ft | 86 kts | 320° |
| 2026-04-26 17:16 | 52.47723 | 9.65038 | 1435 ft | 95 kts | 5° |
| 2026-04-26 17:17 | 52.48279 | 9.65740 | 1555 ft | 113 kts | 54° |
| 2026-04-26 17:17 | 52.48404 | 9.67051 | 1646 ft | 122 kts | 84° |
| 2026-04-26 17:17 | 52.48347 | 9.68484 | 1666 ft | 128 kts | 92° |
| 2026-04-26 17:17 | 52.48250 | 9.69941 | 1734 ft | 127 kts | 91° |
| 2026-04-26 17:18 | 52.48203 | 9.71393 | 1741 ft | 128 kts | 83° |
| 2026-04-26 17:18 | 52.48418 | 9.72747 | 1798 ft | 120 kts | 58° |
| 2026-04-26 17:18 | 52.48796 | 9.73988 | 1801 ft | 122 kts | 54° |
| 2026-04-26 17:18 | 52.49293 | 9.75112 | 1766 ft | 122 kts | 39° |
| 2026-04-26 17:19 | 52.50554 | 9.76879 | 1846 ft | 115 kts | 32° |
| 2026-04-26 17:19 | 52.51157 | 9.77757 | 1846 ft | 113 kts | 34° |
| 2026-04-26 17:19 | 52.51733 | 9.78612 | 1854 ft | 113 kts | 34° |
| 2026-04-26 17:20 | 52.52322 | 9.79472 | 1857 ft | 113 kts | 34° |
| 2026-04-26 17:20 | 52.52523 | 9.79753 | 1871 ft | 111 kts | 31° |
| 2026-04-26 17:20 | 52.53620 | 9.80669 | 1958 ft | 107 kts | 6° |
| 2026-04-26 17:20 | 52.54341 | 9.80725 | 1963 ft | 104 kts | 348° |
| 2026-04-26 17:21 | 52.55059 | 9.80477 | 1919 ft | 105 kts | 339° |
| 2026-04-26 17:21 | 52.55734 | 9.80036 | 1942 ft | 104 kts | 332° |
| 2026-04-26 17:21 | 52.56390 | 9.79546 | 1973 ft | 104 kts | 332° |
| 2026-04-26 17:21 | 52.57036 | 9.79056 | 1995 ft | 101 kts | 332° |
| 2026-04-26 17:22 | 52.57666 | 9.78571 | 2018 ft | 100 kts | 331° |
| 2026-04-26 17:22 | 52.58084 | 9.78242 | 2035 ft | 101 kts | 330° |
| 2026-04-26 17:22 | 52.58708 | 9.77714 | 2061 ft | 100 kts | 323° |
| 2026-04-26 17:22 | 52.59269 | 9.77031 | 2078 ft | 99 kts | 318° |
| 2026-04-26 17:23 | 52.59812 | 9.76335 | 2099 ft | 99 kts | 320° |
| 2026-04-26 17:23 | 52.60349 | 9.75640 | 2123 ft | 98 kts | 319° |
| 2026-04-26 17:23 | 52.60880 | 9.74940 | 2148 ft | 98 kts | 318° |
| 2026-04-26 17:23 | 52.61406 | 9.74232 | 2170 ft | 98 kts | 318° |
| 2026-04-26 17:24 | 52.61926 | 9.73517 | 2193 ft | 97 kts | 317° |
| 2026-04-26 17:24 | 52.62442 | 9.72796 | 2226 ft | 97 kts | 317° |
| 2026-04-26 17:24 | 52.62960 | 9.72065 | 2242 ft | 99 kts | 316° |
| 2026-04-26 17:24 | 52.63486 | 9.71338 | 2251 ft | 100 kts | 322° |
| 2026-04-26 17:25 | 52.64084 | 9.70719 | 2251 ft | 103 kts | 330° |
| 2026-04-26 17:25 | 52.64741 | 9.70270 | 2272 ft | 102 kts | 335° |
| 2026-04-26 17:25 | 52.65404 | 9.69899 | 2235 ft | 104 kts | 341° |
| 2026-04-26 17:25 | 52.66121 | 9.69677 | 2175 ft | 105 kts | 352° |
| 2026-04-26 17:26 | 52.66847 | 9.69712 | 2144 ft | 103 kts | 358° |
| 2026-04-26 17:26 | 52.67554 | 9.69786 | 2105 ft | 104 kts | 358° |
| 2026-04-26 17:26 | 52.68265 | 9.69821 | 2118 ft | 103 kts | 353° |
| 2026-04-26 17:26 | 52.68969 | 9.69685 | 2147 ft | 99 kts | 342° |
| 2026-04-26 17:27 | 52.69630 | 9.69337 | 2079 ft | 102 kts | 335° |
| 2026-04-26 17:27 | 52.70293 | 9.68904 | 2055 ft | 101 kts | 335° |
| 2026-04-26 17:27 | 52.70952 | 9.68517 | 2016 ft | 101 kts | 338° |
| 2026-04-26 17:27 | 52.71598 | 9.68039 | 1954 ft | 101 kts | 332° |
| 2026-04-26 17:28 | 52.72229 | 9.67502 | 1883 ft | 103 kts | 330° |
| 2026-04-26 17:28 | 52.72829 | 9.66886 | 1813 ft | 99 kts | 323° |
| 2026-04-26 17:28 | 52.73363 | 9.66194 | 1590 ft | 97 kts | 320° |
| 2026-04-26 17:28 | 52.73895 | 9.65551 | 1406 ft | 93 kts | 323° |
| 2026-04-26 17:29 | 52.74388 | 9.64852 | 1271 ft | 93 kts | 317° |
| 2026-04-26 17:29 | 52.74701 | 9.64369 | 1159 ft | 94 kts | 316° |
| 2026-04-26 17:29 | 52.75324 | 9.63332 | 880 ft | 95 kts | 318° |
| 2026-04-26 17:29 | 52.75888 | 9.62826 | 829 ft | 91 kts | 351° |
| 2026-04-26 17:30 | 52.76467 | 9.63097 | 873 ft | 85 kts | 25° |
| 2026-04-26 17:30 | 52.76974 | 9.63612 | 859 ft | 85 kts | 30° |
| 2026-04-26 17:30 | 52.77465 | 9.64019 | 915 ft | 76 kts | 347° |
| 2026-04-26 17:30 | 52.77854 | 9.63457 | 814 ft | 81 kts | 300° |
| 2026-04-26 17:31 | 52.77793 | 9.62625 | 699 ft | 78 kts | 225° |
| 2026-04-26 17:31 | 52.77310 | 9.62232 | 454 ft | 76 kts | 214° |
| 2026-04-26 17:31 | 52.76892 | 9.61773 | 254 ft | 69 kts | 217° |
| 2026-04-26 17:31 | 52.76499 | 9.61392 | 95 ft | 58 kts | 214° |
| 2026-04-26 17:32 | 52.76293 | 9.61182 | 96 ft | 23 kts | 208° |
| 2026-04-26 17:32 | 52.76220 | 9.61091 | 94 ft | 6 kts | 249° |
| 2026-04-26 17:32 | 52.76210 | 9.61037 | 94 ft | 4 kts | 249° |
| 2026-04-26 17:32 | 52.76172 | 9.60963 | 95 ft | 10 kts | 227° |
| 2026-04-26 17:33 | 52.76135 | 9.60884 | 95 ft | 7 kts | 250° |
| 2026-04-26 17:33 | 52.76130 | 9.60823 | 95 ft | 3 kts | 297° |
| 2026-04-26 17:33 | 52.76135 | 9.60814 | 95 ft | 0 kts | 318° |
| 2026-04-26 17:34 | 52.76143 | 9.60810 | 95 ft | 0 kts | 345° |